sensor_id;sensor_type;location;lat;lon;timestamp;pressure;altitude;pressure_sealevel;temperature;humidity
32131;BME280;18639;50.716;7.086;2022-12-18T00:01:47;101669.94;;;-3.81;100.00
32131;BME280;18639;50.716;7.086;2022-12-18T00:04:23;101665.00;;;-3.75;100.00
32131;BME280;18639;50.716;7.086;2022-12-18T00:06:49;101647.22;;;-3.81;100.00
32131;BME280;18639;50.716;7.086;2022-12-18T00:09:15;101658.31;;;-3.71;100.00
32131;BME280;18639;50.716;7.086;2022-12-18T00:11:41;101653.09;;;-3.82;100.00
32131;BME280;18639;50.716;7.086;2022-12-18T00:14:06;101612.38;;;-4.05;100.00
32131;BME280;18639;50.716;7.086;2022-12-18T00:16:32;101601.41;;;-4.07;100.00
32131;BME280;18639;50.716;7.086;2022-12-18T00:19:00;101647.31;;;-3.73;100.00
32131;BME280;18639;50.716;7.086;2022-12-18T00:21:27;101659.09;;;-3.75;100.00
32131;BME280;18639;50.716;7.086;2022-12-18T00:23:54;101659.09;;;-3.75;100.00
32131;BME280;18639;50.716;7.086;2022-12-18T00:26:22;101663.28;;;-3.76;100.00
32131;BME280;18639;50.716;7.086;2022-12-18T00:28:48;101641.16;;;-3.92;100.00
32131;BME280;18639;50.716;7.086;2022-12-18T00:31:23;101664.16;;;-3.75;100.00
32131;BME280;18639;50.716;7.086;2022-12-18T00:33:49;101640.28;;;-3.96;100.00
32131;BME280;18639;50.716;7.086;2022-12-18T00:36:16;101663.22;;;-3.79;100.00
32131;BME280;18639;50.716;7.086;2022-12-18T00:38:42;101628.38;;;-4.03;100.00
32131;BME280;18639;50.716;7.086;2022-12-18T00:41:09;101640.28;;;-3.96;100.00
32131;BME280;18639;50.716;7.086;2022-12-18T00:43:36;101663.34;;;-3.74;100.00
32131;BME280;18639;50.716;7.086;2022-12-18T00:46:02;101627.56;;;-4.02;100.00
32131;BME280;18639;50.716;7.086;2022-12-18T00:48:27;101648.69;;;-3.95;100.00
32131;BME280;18639;50.716;7.086;2022-12-18T00:50:53;101646.03;;;-4.04;100.00
32131;BME280;18639;50.716;7.086;2022-12-18T00:53:18;101632.41;;;-4.14;100.00
32131;BME280;18639;50.716;7.086;2022-12-18T00:55:44;101661.16;;;-4.04;100.00
32131;BME280;18639;50.716;7.086;2022-12-18T00:58:15;101674.69;;;-3.99;100.00
32131;BME280;18639;50.716;7.086;2022-12-18T01:00:41;101662.00;;;-4.04;100.00
32131;BME280;18639;50.716;7.086;2022-12-18T01:03:06;101661.81;;;-4.16;100.00
32131;BME280;18639;50.716;7.086;2022-12-18T01:05:32;101656.75;;;-4.17;100.00
32131;BME280;18639;50.716;7.086;2022-12-18T01:07:58;101577.88;;;-4.60;100.00
32131;BME280;18639;50.716;7.086;2022-12-18T01:10:24;101606.63;;;-4.49;100.00
32131;BME280;18639;50.716;7.086;2022-12-18T01:12:49;101652.38;;;-4.28;100.00
32131;BME280;18639;50.716;7.086;2022-12-18T01:15:16;101656.69;;;-4.22;100.00
32131;BME280;18639;50.716;7.086;2022-12-18T01:17:42;101645.03;;;-4.14;100.00
32131;BME280;18639;50.716;7.086;2022-12-18T01:20:09;101627.84;;;-4.36;100.00
32131;BME280;18639;50.716;7.086;2022-12-18T01:22:36;101633.00;;;-4.30;100.00
32131;BME280;18639;50.716;7.086;2022-12-18T01:25:02;101655.84;;;-4.22;100.00
32131;BME280;18639;50.716;7.086;2022-12-18T01:27:28;101613.34;;;-4.48;100.00
32131;BME280;18639;50.716;7.086;2022-12-18T01:29:53;101621.06;;;-4.40;100.00
32131;BME280;18639;50.716;7.086;2022-12-18T01:32:19;101645.63;;;-4.29;100.00
32131;BME280;18639;50.716;7.086;2022-12-18T01:34:44;101612.72;;;-4.36;100.00
32131;BME280;18639;50.716;7.086;2022-12-18T01:37:09;101628.78;;;-4.30;100.00
32131;BME280;18639;50.716;7.086;2022-12-18T01:39:35;101617.84;;;-4.30;100.00
32131;BME280;18639;50.716;7.086;2022-12-18T01:42:02;101653.50;;;-4.12;100.00
32131;BME280;18639;50.716;7.086;2022-12-18T01:47:20;101660.47;;;-3.96;100.00
32131;BME280;18639;50.716;7.086;2022-12-18T01:49:46;101643.53;;;-4.03;100.00
32131;BME280;18639;50.716;7.086;2022-12-18T01:52:12;101641.81;;;-4.04;100.00
32131;BME280;18639;50.716;7.086;2022-12-18T01:54:38;101635.91;;;-4.06;100.00
32131;BME280;18639;50.716;7.086;2022-12-18T01:57:03;101636.06;;;-3.95;100.00
32131;BME280;18639;50.716;7.086;2022-12-18T01:59:31;101656.50;;;-3.78;100.00
32131;BME280;18639;50.716;7.086;2022-12-18T02:01:57;101625.03;;;-4.02;100.00
32131;BME280;18639;50.716;7.086;2022-12-18T02:04:24;101613.44;;;-3.91;100.00
32131;BME280;18639;50.716;7.086;2022-12-18T02:06:58;101638.91;;;-3.75;100.00
32131;BME280;18639;50.716;7.086;2022-12-18T02:09:34;101614.28;;;-3.90;100.00
32131;BME280;18639;50.716;7.086;2022-12-18T02:12:08;101638.13;;;-3.71;100.00
32131;BME280;18639;50.716;7.086;2022-12-18T02:14:42;101614.28;;;-3.90;100.00
32131;BME280;18639;50.716;7.086;2022-12-18T02:17:16;101639.97;;;-3.60;100.00
32131;BME280;18639;50.716;7.086;2022-12-18T02:22:45;101606.94;;;-3.73;100.00
32131;BME280;18639;50.716;7.086;2022-12-18T02:27:48;101612.88;;;-3.71;100.00
32131;BME280;18639;50.716;7.086;2022-12-18T02:30:16;101592.34;;;-3.94;100.00
32131;BME280;18639;50.716;7.086;2022-12-18T02:32:46;101622.19;;;-3.66;100.00
32131;BME280;18639;50.716;7.086;2022-12-18T02:35:20;101630.47;;;-3.76;100.00
32131;BME280;18639;50.716;7.086;2022-12-18T02:37:47;101624.56;;;-3.76;100.00
32131;BME280;18639;50.716;7.086;2022-12-18T02:40:14;101648.19;;;-3.73;100.00
32131;BME280;18639;50.716;7.086;2022-12-18T02:42:40;101632.13;;;-3.79;100.00
32131;BME280;18639;50.716;7.086;2022-12-18T02:45:06;101634.44;;;-3.92;100.00
32131;BME280;18639;50.716;7.086;2022-12-18T02:47:35;101638.69;;;-3.91;100.00
32131;BME280;18639;50.716;7.086;2022-12-18T02:50:05;101640.31;;;-3.93;100.00
32131;BME280;18639;50.716;7.086;2022-12-18T02:55:40;101640.19;;;-4.00;100.00
32131;BME280;18639;50.716;7.086;2022-12-18T03:04:26;101623.22;;;-4.10;100.00
32131;BME280;18639;50.716;7.086;2022-12-18T03:06:56;101618.16;;;-4.12;100.00
32131;BME280;18639;50.716;7.086;2022-12-18T03:09:29;101621.44;;;-4.17;100.00
32131;BME280;18639;50.716;7.086;2022-12-18T03:12:03;101628.19;;;-4.15;100.00
32131;BME280;18639;50.716;7.086;2022-12-18T03:15:01;101624.84;;;-4.14;100.00
32131;BME280;18639;50.716;7.086;2022-12-18T03:17:29;101624.88;;;-4.11;100.00
32131;BME280;18639;50.716;7.086;2022-12-18T03:19:58;101628.16;;;-4.18;100.00
32131;BME280;18639;50.716;7.086;2022-12-18T03:22:27;101617.88;;;-4.27;100.00
32131;BME280;18639;50.716;7.086;2022-12-18T03:24:55;101611.06;;;-4.33;100.00
32131;BME280;18639;50.716;7.086;2022-12-18T03:27:23;101616.13;;;-4.34;100.00
32131;BME280;18639;50.716;7.086;2022-12-18T03:29:58;101610.16;;;-4.39;100.00
32131;BME280;18639;50.716;7.086;2022-12-18T03:32:35;101623.63;;;-4.37;100.00
32131;BME280;18639;50.716;7.086;2022-12-18T03:35:04;101610.97;;;-4.40;100.00
32131;BME280;18639;50.716;7.086;2022-12-18T03:37:30;101591.06;;;-4.73;100.00
32131;BME280;18639;50.716;7.086;2022-12-18T03:39:56;101612.31;;;-4.59;100.00
32131;BME280;18639;50.716;7.086;2022-12-18T03:42:24;101610.59;;;-4.61;100.00
32131;BME280;18639;50.716;7.086;2022-12-18T03:44:58;101602.03;;;-4.70;100.00
32131;BME280;18639;50.716;7.086;2022-12-18T03:47:32;101595.31;;;-4.71;100.00
32131;BME280;18639;50.716;7.086;2022-12-18T03:50:14;101609.78;;;-4.60;100.00
32131;BME280;18639;50.716;7.086;2022-12-18T03:52:50;101607.25;;;-4.60;100.00
32131;BME280;18639;50.716;7.086;2022-12-18T03:55:18;101595.47;;;-4.61;100.00
32131;BME280;18639;50.716;7.086;2022-12-18T03:57:45;101586.06;;;-4.72;100.00
32131;BME280;18639;50.716;7.086;2022-12-18T04:00:15;101610.63;;;-4.58;100.00
32131;BME280;18639;50.716;7.086;2022-12-18T04:02:50;101589.41;;;-4.73;100.00
32131;BME280;18639;50.716;7.086;2022-12-18T04:05:17;101607.94;;;-4.71;100.00
32131;BME280;18639;50.716;7.086;2022-12-18T04:07:47;101591.03;;;-4.76;100.00
32131;BME280;18639;50.716;7.086;2022-12-18T04:10:13;101586.84;;;-4.76;100.00
32131;BME280;18639;50.716;7.086;2022-12-18T04:12:39;101604.56;;;-4.71;100.00
32131;BME280;18639;50.716;7.086;2022-12-18T04:15:05;101611.94;;;-4.82;100.00
32131;BME280;18639;50.716;7.086;2022-12-18T04:17:30;101604.28;;;-4.86;100.00
32131;BME280;18639;50.716;7.086;2022-12-18T04:19:56;101594.06;;;-4.94;100.00
32131;BME280;18639;50.716;7.086;2022-12-18T04:22:21;101610.72;;;-5.00;100.00
32131;BME280;18639;50.716;7.086;2022-12-18T04:24:46;101594.63;;;-5.07;100.00
32131;BME280;18639;50.716;7.086;2022-12-18T04:27:12;101602.41;;;-4.95;100.00
32131;BME280;18639;50.716;7.086;2022-12-18T04:29:37;101589.00;;;-4.94;100.00
32131;BME280;18639;50.716;7.086;2022-12-18T04:32:02;101587.25;;;-4.98;100.00
32131;BME280;18639;50.716;7.086;2022-12-18T04:34:28;101600.84;;;-4.90;100.00
32131;BME280;18639;50.716;7.086;2022-12-18T04:36:53;101591.13;;;-5.15;100.00
32131;BME280;18639;50.716;7.086;2022-12-18T04:39:19;101583.44;;;-5.21;100.00
32131;BME280;18639;50.716;7.086;2022-12-18T04:41:45;101602.38;;;-4.98;100.00
32131;BME280;18639;50.716;7.086;2022-12-18T04:44:10;101597.19;;;-5.05;100.00
32131;BME280;18639;50.716;7.086;2022-12-18T04:46:35;101598.09;;;-5.02;100.00
32131;BME280;18639;50.716;7.086;2022-12-18T04:49:00;101610.78;;;-4.96;100.00
32131;BME280;18639;50.716;7.086;2022-12-18T04:51:26;101607.38;;;-4.99;100.00
32131;BME280;18639;50.716;7.086;2022-12-18T04:53:51;101597.25;;;-5.01;100.00
32131;BME280;18639;50.716;7.086;2022-12-18T04:56:17;101544.41;;;-5.43;100.00
32131;BME280;18639;50.716;7.086;2022-12-18T04:58:45;101521.53;;;-5.54;100.00
32131;BME280;18639;50.716;7.086;2022-12-18T05:01:12;101505.50;;;-5.59;100.00
32131;BME280;18639;50.716;7.086;2022-12-18T05:03:38;101597.00;;;-5.15;100.00
32131;BME280;18639;50.716;7.086;2022-12-18T05:06:04;101596.41;;;-5.01;100.00
32131;BME280;18639;50.716;7.086;2022-12-18T05:08:30;101595.56;;;-5.03;100.00
32131;BME280;18639;50.716;7.086;2022-12-18T05:11:00;101600.50;;;-5.08;100.00
32131;BME280;18639;50.716;7.086;2022-12-18T05:13:27;101573.28;;;-5.26;100.00
32131;BME280;18639;50.716;7.086;2022-12-18T05:15:53;101590.16;;;-5.22;100.00
32131;BME280;18639;50.716;7.086;2022-12-18T05:18:19;101593.69;;;-5.12;100.00
32131;BME280;18639;50.716;7.086;2022-12-18T05:20:44;101567.28;;;-5.32;100.00
32131;BME280;18639;50.716;7.086;2022-12-18T05:23:09;101583.53;;;-5.18;100.00
32131;BME280;18639;50.716;7.086;2022-12-18T05:25:35;101582.81;;;-5.11;100.00
32131;BME280;18639;50.716;7.086;2022-12-18T05:28:00;101567.53;;;-5.20;100.00
32131;BME280;18639;50.716;7.086;2022-12-18T05:30:25;101561.47;;;-5.30;100.00
32131;BME280;18639;50.716;7.086;2022-12-18T05:32:51;101560.53;;;-5.33;100.00
32131;BME280;18639;50.716;7.086;2022-12-18T05:35:19;101579.44;;;-5.12;100.00
32131;BME280;18639;50.716;7.086;2022-12-18T05:37:45;101557.50;;;-5.17;100.00
32131;BME280;18639;50.716;7.086;2022-12-18T05:40:11;101569.28;;;-5.16;100.00
32131;BME280;18639;50.716;7.086;2022-12-18T05:42:36;101557.50;;;-5.17;100.00
32131;BME280;18639;50.716;7.086;2022-12-18T05:45:01;101580.53;;;-4.99;100.00
32131;BME280;18639;50.716;7.086;2022-12-18T05:47:27;101590.63;;;-4.96;100.00
32131;BME280;18639;50.716;7.086;2022-12-18T05:49:53;101584.78;;;-4.95;100.00
32131;BME280;18639;50.716;7.086;2022-12-18T05:52:19;101569.50;;;-5.04;100.00
32131;BME280;18639;50.716;7.086;2022-12-18T05:54:44;101589.81;;;-4.95;100.00
32131;BME280;18639;50.716;7.086;2022-12-18T05:57:09;101597.34;;;-4.96;100.00
32131;BME280;18639;50.716;7.086;2022-12-18T05:59:35;101593.97;;;-4.98;100.00
32131;BME280;18639;50.716;7.086;2022-12-18T06:02:00;101600.69;;;-4.99;100.00
32131;BME280;18639;50.716;7.086;2022-12-18T06:04:27;101594.75;;;-5.01;100.00
32131;BME280;18639;50.716;7.086;2022-12-18T06:06:55;101602.50;;;-4.92;100.00
32131;BME280;18639;50.716;7.086;2022-12-18T06:09:20;101623.72;;;-4.79;100.00
32131;BME280;18639;50.716;7.086;2022-12-18T06:11:46;101604.16;;;-4.92;100.00
32131;BME280;18639;50.716;7.086;2022-12-18T06:14:11;101601.59;;;-4.94;100.00
32131;BME280;18639;50.716;7.086;2022-12-18T06:16:36;101625.47;;;-4.77;100.00
32131;BME280;18639;50.716;7.086;2022-12-18T06:19:04;101647.31;;;-4.76;100.00
32131;BME280;18639;50.716;7.086;2022-12-18T06:21:30;101644.81;;;-4.74;100.00
32131;BME280;18639;50.716;7.086;2022-12-18T06:23:56;101619.34;;;-4.89;100.00
32131;BME280;18639;50.716;7.086;2022-12-18T06:26:21;101651.47;;;-4.78;100.00
32131;BME280;18639;50.716;7.086;2022-12-18T06:28:47;101613.19;;;-5.02;100.00
32131;BME280;18639;50.716;7.086;2022-12-18T06:31:12;101652.28;;;-4.79;100.00
32131;BME280;18639;50.716;7.086;2022-12-18T06:33:38;101647.25;;;-4.79;100.00
32131;BME280;18639;50.716;7.086;2022-12-18T06:36:10;101648.25;;;-4.69;100.00
32131;BME280;18639;50.716;7.086;2022-12-18T06:38:37;101638.09;;;-4.74;100.00
32131;BME280;18639;50.716;7.086;2022-12-18T06:41:21;101625.56;;;-4.71;100.00
32131;BME280;18639;50.716;7.086;2022-12-18T06:43:46;101628.84;;;-4.76;100.00
32131;BME280;18639;50.716;7.086;2022-12-18T06:46:12;101619.59;;;-4.76;100.00
32131;BME280;18639;50.716;7.086;2022-12-18T06:48:38;101606.88;;;-4.82;100.00
32131;BME280;18639;50.716;7.086;2022-12-18T06:51:04;101611.03;;;-4.84;100.00
32131;BME280;18639;50.716;7.086;2022-12-18T06:53:29;101642.44;;;-4.67;100.00
32131;BME280;18639;50.716;7.086;2022-12-18T06:56:05;101626.66;;;-4.56;100.00
32131;BME280;18639;50.716;7.086;2022-12-18T06:58:31;101630.06;;;-4.54;100.00
32131;BME280;18639;50.716;7.086;2022-12-18T07:01:01;101627.66;;;-4.47;100.00
32131;BME280;18639;50.716;7.086;2022-12-18T07:03:27;101619.09;;;-4.56;100.00
32131;BME280;18639;50.716;7.086;2022-12-18T07:05:52;101628.47;;;-4.48;100.00
32131;BME280;18639;50.716;7.086;2022-12-18T07:08:18;101632.84;;;-4.39;100.00
32131;BME280;18639;50.716;7.086;2022-12-18T07:10:43;101615.91;;;-4.46;100.00
32131;BME280;18639;50.716;7.086;2022-12-18T07:13:09;101595.59;;;-4.54;100.00
32131;BME280;18639;50.716;7.086;2022-12-18T07:15:34;101613.53;;;-4.39;100.00
32131;BME280;18639;50.716;7.086;2022-12-18T07:17:59;101598.09;;;-4.55;100.00
32131;BME280;18639;50.716;7.086;2022-12-18T07:20:24;101637.03;;;-4.40;100.00
32131;BME280;18639;50.716;7.086;2022-12-18T07:22:50;101640.53;;;-4.33;100.00
32131;BME280;18639;50.716;7.086;2022-12-18T07:25:15;101643.13;;;-4.29;100.00
32131;BME280;18639;50.716;7.086;2022-12-18T07:27:40;101638.03;;;-4.30;100.00
32131;BME280;18639;50.716;7.086;2022-12-18T07:30:06;101627.91;;;-4.32;100.00
32131;BME280;18639;50.716;7.086;2022-12-18T07:32:31;101627.97;;;-4.29;100.00
32131;BME280;18639;50.716;7.086;2022-12-18T07:34:57;101604.97;;;-4.47;100.00
32131;BME280;18639;50.716;7.086;2022-12-18T07:37:22;101625.38;;;-4.33;100.00
32131;BME280;18639;50.716;7.086;2022-12-18T07:39:48;101617.81;;;-4.33;100.00
32131;BME280;18639;50.716;7.086;2022-12-18T07:42:13;101628.66;;;-4.39;100.00
32131;BME280;18639;50.716;7.086;2022-12-18T07:44:59;101608.59;;;-4.31;100.00
32131;BME280;18639;50.716;7.086;2022-12-18T07:47:27;101600.16;;;-4.33;100.00
32131;BME280;18639;50.716;7.086;2022-12-18T07:49:53;101607.81;;;-4.27;100.00
32131;BME280;18639;50.716;7.086;2022-12-18T07:52:18;101621.31;;;-4.25;100.00
32131;BME280;18639;50.716;7.086;2022-12-18T07:54:44;101611.31;;;-4.19;100.00
32131;BME280;18639;50.716;7.086;2022-12-18T07:57:09;101609.47;;;-4.29;100.00
32131;BME280;18639;50.716;7.086;2022-12-18T07:59:35;101608.66;;;-4.28;100.00
32131;BME280;18639;50.716;7.086;2022-12-18T08:02:00;101611.28;;;-4.22;100.00
32131;BME280;18639;50.716;7.086;2022-12-18T08:04:26;101580.00;;;-4.32;100.00
32131;BME280;18639;50.716;7.086;2022-12-18T08:06:51;101589.50;;;-4.17;100.00
32131;BME280;18639;50.716;7.086;2022-12-18T08:09:17;101552.13;;;-4.39;100.00
32131;BME280;18639;50.716;7.086;2022-12-18T08:11:44;101550.66;;;-4.25;100.00
32131;BME280;18639;50.716;7.086;2022-12-18T08:14:09;101577.19;;;-3.96;100.00
32131;BME280;18639;50.716;7.086;2022-12-18T08:16:37;101542.31;;;-4.21;100.00
32131;BME280;18639;50.716;7.086;2022-12-18T08:19:11;101583.22;;;-3.86;100.00
32131;BME280;18639;50.716;7.086;2022-12-18T08:21:37;101523.00;;;-4.19;100.00
32131;BME280;18639;50.716;7.086;2022-12-18T08:24:06;101538.31;;;-4.05;100.00
32131;BME280;18639;50.716;7.086;2022-12-18T08:26:33;101503.09;;;-3.99;100.00
32131;BME280;18639;50.716;7.086;2022-12-18T08:28:59;101557.53;;;-3.55;100.00
32131;BME280;18639;50.716;7.086;2022-12-18T08:31:26;101573.81;;;-3.33;100.00
32131;BME280;18639;50.716;7.086;2022-12-18T08:33:52;101550.03;;;-3.47;100.00
32131;BME280;18639;50.716;7.086;2022-12-18T08:36:19;101552.59;;;-3.46;100.00
32131;BME280;18639;50.716;7.086;2022-12-18T08:38:45;101535.09;;;-3.29;100.00
32131;BME280;18639;50.716;7.086;2022-12-18T08:41:12;101532.53;;;-3.30;100.00
32131;BME280;18639;50.716;7.086;2022-12-18T08:43:38;101536.00;;;-3.24;100.00
32131;BME280;18639;50.716;7.086;2022-12-18T08:46:24;101558.88;;;-3.12;100.00
32131;BME280;18639;50.716;7.086;2022-12-18T08:48:50;101552.19;;;-3.07;100.00
32131;BME280;18639;50.716;7.086;2022-12-18T08:51:16;101542.09;;;-3.05;100.00
32131;BME280;18639;50.716;7.086;2022-12-18T08:53:42;101556.41;;;-3.04;100.00
32131;BME280;18639;50.716;7.086;2022-12-18T08:56:08;101534.28;;;-3.25;100.00
32131;BME280;18639;50.716;7.086;2022-12-18T08:58:33;101534.34;;;-3.22;100.00
32131;BME280;18639;50.716;7.086;2022-12-18T09:01:06;101550.47;;;-3.08;100.00
32131;BME280;18639;50.716;7.086;2022-12-18T09:03:33;101558.81;;;-3.15;100.00
32131;BME280;18639;50.716;7.086;2022-12-18T09:05:58;101514.00;;;-3.32;100.00
32131;BME280;18639;50.716;7.086;2022-12-18T09:08:24;101551.31;;;-3.09;100.00
32131;BME280;18639;50.716;7.086;2022-12-18T09:10:52;101544.72;;;-2.96;100.00
32131;BME280;18639;50.716;7.086;2022-12-18T09:13:18;101560.75;;;-2.92;100.00
32131;BME280;18639;50.716;7.086;2022-12-18T09:15:49;101557.41;;;-2.88;100.00
32131;BME280;18639;50.716;7.086;2022-12-18T09:18:16;101533.84;;;-2.89;100.00
32131;BME280;18639;50.716;7.086;2022-12-18T09:20:42;101537.38;;;-2.69;99.85
32131;BME280;18639;50.716;7.086;2022-12-18T09:23:08;101542.59;;;-2.49;99.63
32131;BME280;18639;50.716;7.086;2022-12-18T09:25:34;101528.09;;;-2.67;97.96
32131;BME280;18639;50.716;7.086;2022-12-18T09:28:02;101552.59;;;-2.64;98.47
32131;BME280;18639;50.716;7.086;2022-12-18T09:30:27;101549.03;;;-2.83;98.67
32131;BME280;18639;50.716;7.086;2022-12-18T09:32:53;101534.91;;;-2.60;99.75
32131;BME280;18639;50.716;7.086;2022-12-18T09:35:18;101529.06;;;-2.57;98.84
32131;BME280;18639;50.716;7.086;2022-12-18T09:37:43;101535.13;;;-2.34;98.17
32131;BME280;18639;50.716;7.086;2022-12-18T09:40:20;101519.84;;;-2.44;98.51
32131;BME280;18639;50.716;7.086;2022-12-18T09:42:51;101534.31;;;-2.30;97.81
32131;BME280;18639;50.716;7.086;2022-12-18T09:45:19;101525.88;;;-2.32;98.68
32131;BME280;18639;50.716;7.086;2022-12-18T09:47:45;101516.47;;;-2.48;97.99
32131;BME280;18639;50.716;7.086;2022-12-18T09:50:34;101507.28;;;-2.37;98.32
32131;BME280;18639;50.716;7.086;2022-12-18T09:53:05;101520.91;;;-2.17;97.66
32131;BME280;18639;50.716;7.086;2022-12-18T09:55:41;101505.66;;;-2.24;97.04
32131;BME280;18639;50.716;7.086;2022-12-18T09:58:20;101498.94;;;-2.21;97.23
32131;BME280;18639;50.716;7.086;2022-12-18T10:00:51;101498.13;;;-2.14;97.46
32131;BME280;18639;50.716;7.086;2022-12-18T10:03:17;101495.66;;;-2.01;97.29
32131;BME280;18639;50.716;7.086;2022-12-18T10:14:36;101501.44;;;-2.27;97.03
32131;BME280;18639;50.716;7.086;2022-12-18T10:17:26;101469.41;;;-2.22;97.16
32131;BME280;18639;50.716;7.086;2022-12-18T10:19:57;101484.59;;;-2.19;97.95
32131;BME280;18639;50.716;7.086;2022-12-18T10:22:34;101489.78;;;-1.99;98.32
32131;BME280;18639;50.716;7.086;2022-12-18T10:27:44;101468.59;;;-2.15;97.61
32131;BME280;18639;50.716;7.086;2022-12-18T10:30:15;101480.53;;;-1.89;97.44
32131;BME280;18639;50.716;7.086;2022-12-18T10:32:41;101453.41;;;-2.12;96.56
32131;BME280;18639;50.716;7.086;2022-12-18T10:35:19;101475.44;;;-1.98;97.39
32131;BME280;18639;50.716;7.086;2022-12-18T10:38:20;101474.63;;;-1.90;97.54
32131;BME280;18639;50.716;7.086;2022-12-18T10:41:01;101488.94;;;-1.96;97.05
32131;BME280;18639;50.716;7.086;2022-12-18T10:43:35;101483.13;;;-1.74;97.21
32131;BME280;18639;50.716;7.086;2022-12-18T10:51:34;101458.59;;;-1.90;97.14
32131;BME280;18639;50.716;7.086;2022-12-18T10:54:07;101464.50;;;-1.87;96.47
32131;BME280;18639;50.716;7.086;2022-12-18T10:56:39;101440.88;;;-1.81;97.80
32131;BME280;18639;50.716;7.086;2022-12-18T10:59:06;101470.47;;;-1.77;95.85
32131;BME280;18639;50.716;7.086;2022-12-18T11:01:52;101469.63;;;-1.73;96.87
32131;BME280;18639;50.716;7.086;2022-12-18T11:04:31;101465.28;;;-2.01;96.70
32131;BME280;18639;50.716;7.086;2022-12-18T11:07:04;101462.75;;;-2.04;96.51
32131;BME280;18639;50.716;7.086;2022-12-18T11:09:39;101457.66;;;-2.06;97.63
32131;BME280;18639;50.716;7.086;2022-12-18T11:14:56;101450.22;;;-1.71;98.14
32131;BME280;18639;50.716;7.086;2022-12-18T11:17:33;101435.84;;;-1.71;96.55
32131;BME280;18639;50.716;7.086;2022-12-18T11:20:05;101453.63;;;-1.60;97.60
32131;BME280;18639;50.716;7.086;2022-12-18T11:22:35;101446.03;;;-1.66;95.98
32131;BME280;18639;50.716;7.086;2022-12-18T11:25:17;101438.38;;;-1.74;96.95
32131;BME280;18639;50.716;7.086;2022-12-18T11:27:49;101434.19;;;-1.59;96.95
32131;BME280;18639;50.716;7.086;2022-12-18T11:30:36;101440.97;;;-1.57;97.22
32131;BME280;18639;50.716;7.086;2022-12-18T11:33:20;101441.78;;;-1.64;96.34
32131;BME280;18639;50.716;7.086;2022-12-18T11:35:52;101413.91;;;-1.70;96.16
32131;BME280;18639;50.716;7.086;2022-12-18T11:38:27;101429.94;;;-1.74;95.93
32131;BME280;18639;50.716;7.086;2022-12-18T11:41:18;101444.31;;;-1.67;96.52
32131;BME280;18639;50.716;7.086;2022-12-18T11:44:01;101439.25;;;-1.59;96.06
32131;BME280;18639;50.716;7.086;2022-12-18T11:46:43;101426.59;;;-1.62;96.20
32131;BME280;18639;50.716;7.086;2022-12-18T11:49:34;101435.88;;;-1.60;96.44
32131;BME280;18639;50.716;7.086;2022-12-18T11:52:07;101416.47;;;-1.58;96.21
32131;BME280;18639;50.716;7.086;2022-12-18T11:54:34;101411.44;;;-1.46;96.77
32131;BME280;18639;50.716;7.086;2022-12-18T11:57:24;101412.25;;;-1.62;95.86
32131;BME280;18639;50.716;7.086;2022-12-18T12:00:21;101414.78;;;-1.44;96.24
32131;BME280;18639;50.716;7.086;2022-12-18T12:08:36;101408.03;;;-1.57;97.08
32131;BME280;18639;50.716;7.086;2022-12-18T12:11:11;101405.50;;;-1.58;97.60
32131;BME280;18639;50.716;7.086;2022-12-18T12:14:13;101401.25;;;-1.65;97.16
32131;BME280;18639;50.716;7.086;2022-12-18T12:16:52;101380.16;;;-1.66;96.83
32131;BME280;18639;50.716;7.086;2022-12-18T12:30:27;101368.31;;;-1.62;98.96
32131;BME280;18639;50.716;7.086;2022-12-18T12:33:47;101375.13;;;-1.40;98.48
32131;BME280;18639;50.716;7.086;2022-12-18T12:38:43;101334.56;;;-1.57;97.73
32131;BME280;18639;50.716;7.086;2022-12-18T12:41:14;101332.00;;;-1.69;97.85
32131;BME280;18639;50.716;7.086;2022-12-18T12:44:07;101350.63;;;-1.46;97.72
32131;BME280;18639;50.716;7.086;2022-12-18T12:46:36;101307.50;;;-1.65;97.17
32131;BME280;18639;50.716;7.086;2022-12-18T12:49:13;101302.44;;;-1.68;97.00
32131;BME280;18639;50.716;7.086;2022-12-18T12:51:43;101353.16;;;-1.37;96.76
32131;BME280;18639;50.716;7.086;2022-12-18T12:54:19;101330.31;;;-1.49;97.41
32131;BME280;18639;50.716;7.086;2022-12-18T13:00:03;101362.44;;;-1.25;98.00
32131;BME280;18639;50.716;7.086;2022-12-18T13:05:34;101350.63;;;-1.34;96.86
32131;BME280;18639;50.716;7.086;2022-12-18T13:08:07;101254.34;;;-1.82;97.31
32131;BME280;18639;50.716;7.086;2022-12-18T13:10:42;101304.16;;;-1.52;97.81
32131;BME280;18639;50.716;7.086;2022-12-18T13:13:12;101311.75;;;-1.45;96.93
32131;BME280;18639;50.716;7.086;2022-12-18T13:15:43;101304.13;;;-1.54;96.85
32131;BME280;18639;50.716;7.086;2022-12-18T13:20:45;101347.22;;;-1.27;95.77
32131;BME280;18639;50.716;7.086;2022-12-18T13:23:25;101365.81;;;-1.14;96.27
32131;BME280;18639;50.716;7.086;2022-12-18T13:31:53;101361.59;;;-1.22;96.52
32131;BME280;18639;50.716;7.086;2022-12-18T13:34:21;101354.00;;;-1.19;96.71
32131;BME280;18639;50.716;7.086;2022-12-18T13:36:47;101338.78;;;-1.41;96.21
32131;BME280;18639;50.716;7.086;2022-12-18T13:41:49;101343.84;;;-1.30;95.95
32131;BME280;18639;50.716;7.086;2022-12-18T13:44:39;101350.63;;;-1.31;95.58
32131;BME280;18639;50.716;7.086;2022-12-18T13:47:34;101343.84;;;-1.32;95.35
32131;BME280;18639;50.716;7.086;2022-12-18T13:50:22;101347.22;;;-1.33;96.12
32131;BME280;18639;50.716;7.086;2022-12-18T13:52:48;101333.72;;;-1.41;95.63
32131;BME280;18639;50.716;7.086;2022-12-18T13:55:19;101327.78;;;-1.64;95.85
32131;BME280;18639;50.716;7.086;2022-12-18T13:57:45;101315.97;;;-1.53;96.90
32131;BME280;18639;50.716;7.086;2022-12-18T14:00:22;101354.84;;;-1.40;96.22
32131;BME280;18639;50.716;7.086;2022-12-18T14:02:49;101345.53;;;-1.37;96.62
32131;BME280;18639;50.716;7.086;2022-12-18T14:05:42;101349.78;;;-1.46;96.52
32131;BME280;18639;50.716;7.086;2022-12-18T14:08:14;101331.19;;;-1.51;97.91
32131;BME280;18639;50.716;7.086;2022-12-18T14:10:45;101325.28;;;-1.61;97.16